Time;durP1;ratioP1;P1;durP2;ratioP2;P2;SDS_P1;SDS_P2;PMS_P1;PMS_P2;Temp;Humidity;BMP_temperature;BMP_pressure;BME280_temperature;BME280_humidity;BME280_pressure;Samples;Min_cycle;Max_cycle;Signal;HPM_P1;HPM_P2
2022/09/04 00:00:17;;;;;;;8.60;5.70;;;;;;;9.01;65.65;100729.42;130362;1267;107143;-77
2022/09/04 00:03:47;;;;;;;9.20;5.60;;;;;;;8.96;65.72;100727.32;130348;1267;108862;-76
2022/09/04 00:07:03;;;;;;;8.50;5.60;;;;;;;8.92;65.70;100728.91;130372;1268;107679;-76
2022/09/04 00:10:18;;;;;;;7.50;4.70;;;;;;;8.87;65.67;100730.96;130329;1267;109727;-77
2022/09/04 00:13:27;;;;;;;9.00;5.20;;;;;;;8.83;65.83;100732.89;130304;1267;107536;-77
2022/09/04 00:16:41;;;;;;;6.30;4.70;;;;;;;8.83;65.74;100739.98;130340;1267;108754;-77
2022/09/04 00:19:55;;;;;;;7.60;5.70;;;;;;;8.84;65.80;100741.11;129057;1267;1784856;-78
2022/09/04 00:23:08;;;;;;;8.20;5.90;;;;;;;8.87;65.85;100747.48;130369;1267;108749;-77
2022/09/04 00:26:26;;;;;;;9.10;5.40;;;;;;;8.88;65.86;100745.56;130332;1267;108421;-78
2022/09/04 00:29:47;;;;;;;7.10;4.80;;;;;;;8.88;65.90;100740.80;130307;1267;108883;-77
2022/09/04 00:33:00;;;;;;;9.20;5.90;;;;;;;8.86;65.96;100744.54;130357;1268;107704;-77
2022/09/04 00:36:05;;;;;;;;;;;;;;;8.81;66.19;100746.31;130344;1267;108568;-77
2022/09/04 00:39:15;;;;;;;8.60;5.00;;;;;;;8.80;66.21;100748.37;130349;1267;108876;-77
2022/09/04 00:42:40;;;;;;;8.70;5.70;;;;;;;8.75;66.14;100747.61;130308;1268;108631;-77
2022/09/04 00:46:22;;;;;;;8.30;5.40;;;;;;;8.69;66.36;100751.45;130385;1267;108635;-78
2022/09/04 00:49:43;;;;;;;8.20;5.60;;;;;;;8.64;66.43;100750.58;130442;1267;108730;-78
2022/09/04 00:53:07;;;;;;;8.30;5.60;;;;;;;8.60;66.48;100750.55;130494;1267;106856;-79
2022/09/04 00:56:51;;;;;;;9.10;5.50;;;;;;;8.59;66.48;100755.80;130357;1267;108748;-78
2022/09/04 01:00:12;;;;;;;11.60;5.20;;;;;;;8.56;66.46;100759.59;129953;1268;108781;-78
2022/09/04 01:03:38;;;;;;;8.20;5.20;;;;;;;8.53;66.55;100755.91;130345;1268;107763;-78
2022/09/04 01:06:53;;;;;;;10.90;5.20;;;;;;;8.53;66.64;100758.30;130394;1268;108813;-78
2022/09/04 01:10:19;;;;;;;7.60;5.30;;;;;;;8.52;66.51;100754.80;130377;1267;108683;-78
2022/09/04 01:13:36;;;;;;;9.10;5.20;;;;;;;8.54;66.70;100755.92;130391;1267;108686;-78
2022/09/04 01:16:47;;;;;;;9.40;5.80;;;;;;;8.55;66.80;100759.35;130312;1267;107953;-78
2022/09/04 01:20:02;;;;;;;8.00;5.40;;;;;;;8.53;66.70;100761.98;130359;1267;109294;-78
2022/09/04 01:23:22;;;;;;;7.70;5.40;;;;;;;8.50;66.52;100762.97;130260;1268;108680;-78
2022/09/04 01:26:40;;;;;;;11.40;5.80;;;;;;;8.46;66.71;100763.63;130318;1267;108965;-78
2022/09/04 01:29:53;;;;;;;8.60;6.00;;;;;;;8.43;66.98;100764.77;130325;1268;108647;-78
2022/09/04 01:33:07;;;;;;;6.60;5.00;;;;;;;8.40;66.81;100769.75;130345;1267;107018;-78
2022/09/04 01:36:21;;;;;;;8.40;5.20;;;;;;;8.35;66.80;100770.15;130382;1267;107162;-78
2022/09/04 01:39:31;;;;;;;7.00;5.40;;;;;;;8.34;66.80;100769.38;130384;1267;108147;-77
2022/09/04 01:42:47;;;;;;;7.60;5.80;;;;;;;8.33;66.95;100771.44;130407;1267;107637;-77
2022/09/04 01:46:14;;;;;;;7.80;5.30;;;;;;;8.27;66.86;100775.48;130310;1268;108741;-76
2022/09/04 01:49:31;;;;;;;7.70;5.50;;;;;;;8.19;66.94;100777.31;130388;1268;108990;-76
2022/09/04 01:52:46;;;;;;;8.80;5.40;;;;;;;8.20;67.42;100779.21;130262;1267;108848;-75
2022/09/04 01:56:02;;;;;;;6.20;4.50;;;;;;;8.21;67.15;100778.19;130241;1267;108783;-76
2022/09/04 01:59:17;;;;;;;10.00;4.90;;;;;;;8.21;67.15;100781.10;130381;1267;108244;-78
2022/09/04 02:02:28;;;;;;;9.80;5.50;;;;;;;8.22;67.28;100779.42;130326;1268;108938;-78
2022/09/04 02:05:44;;;;;;;9.50;5.60;;;;;;;8.22;67.20;100780.98;130379;1267;108842;-78
2022/09/04 02:09:01;;;;;;;9.50;5.40;;;;;;;8.22;67.19;100782.40;130352;1268;108811;-78
2022/09/04 02:12:19;;;;;;;9.90;5.60;;;;;;;8.14;67.12;100776.83;130347;1267;108788;-77
2022/09/04 02:15:37;;;;;;;10.00;6.00;;;;;;;8.12;67.37;100781.81;130353;1267;108846;-77
2022/09/04 02:18:50;;;;;;;8.10;5.60;;;;;;;8.11;67.27;100783.65;130386;1267;108996;-78
2022/09/04 02:22:06;;;;;;;7.30;5.10;;;;;;;8.07;67.26;100780.57;130306;1267;108880;-77
2022/09/04 02:25:23;;;;;;;7.40;5.60;;;;;;;8.04;67.14;100782.30;130370;1268;108707;-77
2022/09/04 02:28:42;;;;;;;9.50;5.70;;;;;;;8.01;67.12;100789.07;130370;1268;108950;-78
2022/09/04 02:31:58;;;;;;;9.90;6.20;;;;;;;8.00;67.41;100791.45;130352;1267;109021;-78
2022/09/04 02:35:09;;;;;;;10.70;5.80;;;;;;;7.97;67.37;100788.68;130400;1267;108562;-78
2022/09/04 02:38:24;;;;;;;9.00;6.30;;;;;;;7.92;67.42;100789.61;130404;1267;109065;-78
2022/09/04 02:41:37;;;;;;;7.50;5.50;;;;;;;7.84;67.42;100781.70;130375;1268;108138;-78
2022/09/04 02:44:56;;;;;;;8.40;5.50;;;;;;;7.79;67.72;100774.30;130384;1268;108522;-78
2022/09/04 02:48:09;;;;;;;9.50;6.20;;;;;;;7.77;67.73;100777.47;130454;1267;109734;-78
2022/09/04 02:51:26;;;;;;;8.90;6.70;;;;;;;7.77;67.71;100778.39;130447;1268;108877;-78
2022/09/04 02:54:56;;;;;;;11.00;6.10;;;;;;;7.77;67.65;100780.54;130395;1268;108716;-78
2022/09/04 02:58:15;;;;;;;10.60;5.90;;;;;;;7.80;67.85;100783.06;130360;1268;108622;-78
2022/09/04 03:01:28;;;;;;;8.40;5.80;;;;;;;7.84;67.82;100788.09;130378;1268;109168;-78
2022/09/04 03:04:41;;;;;;;10.40;7.10;;;;;;;7.82;67.62;100790.01;130338;1267;108788;-78
2022/09/04 03:07:56;;;;;;;10.10;6.40;;;;;;;7.78;67.71;100794.76;130321;1267;108557;-78
2022/09/04 03:11:08;;;;;;;9.70;6.10;;;;;;;7.75;67.62;100793.75;130314;1268;108893;-78
2022/09/04 03:14:24;;;;;;;10.00;6.40;;;;;;;7.74;67.73;100795.09;130303;1268;109415;-78
2022/09/04 03:17:34;;;;;;;8.60;6.50;;;;;;;7.69;67.76;100789.85;130362;1268;107555;-78
2022/09/04 03:20:44;;;;;;;12.10;6.80;;;;;;;7.63;67.85;100788.89;130492;1267;108558;-78
2022/09/04 03:23:55;;;;;;;8.00;5.90;;;;;;;7.58;67.90;100791.73;130491;1268;108709;-78
2022/09/04 03:27:05;;;;;;;12.60;6.50;;;;;;;7.55;67.69;100792.50;130446;1268;108803;-77
2022/09/04 03:30:13;;;;;;;10.20;5.90;;;;;;;7.50;67.93;100792.90;130356;1267;108756;-77
2022/09/04 03:33:28;;;;;;;11.50;6.10;;;;;;;7.47;68.00;100790.68;130339;1268;107703;-78
2022/09/04 03:36:44;;;;;;;8.90;6.00;;;;;;;7.48;67.87;100795.68;130332;1267;108905;-78
2022/09/04 03:40:03;;;;;;;10.00;6.80;;;;;;;7.51;67.94;100797.10;130440;1267;108954;-76
2022/09/04 03:43:30;;;;;;;11.00;7.60;;;;;;;7.52;67.81;100798.96;130365;1268;108962;-77
2022/09/04 03:46:51;;;;;;;10.10;7.50;;;;;;;7.53;68.11;100797.70;130312;1268;108917;-77
2022/09/04 03:50:11;;;;;;;11.90;7.30;;;;;;;7.53;68.13;100794.95;130288;1267;108685;-76
2022/09/04 03:53:29;;;;;;;10.90;7.10;;;;;;;7.51;68.03;100796.90;130338;1267;109113;-77
2022/09/04 03:56:54;;;;;;;14.00;8.00;;;;;;;7.50;68.13;100799.50;130398;1268;109705;-77
2022/09/04 04:00:12;;;;;;;16.10;8.50;;;;;;;7.46;68.01;100802.63;130340;1267;109665;-76
2022/09/04 04:03:42;;;;;;;13.10;8.60;;;;;;;7.39;68.08;100803.64;130383;1267;108974;-77
2022/09/04 04:06:53;;;;;;;13.30;8.40;;;;;;;7.34;67.94;100809.20;130348;1268;109534;-76
2022/09/04 04:10:19;;;;;;;12.60;8.70;;;;;;;7.33;68.24;100811.02;130368;1268;108999;-76
2022/09/04 04:13:44;;;;;;;14.10;9.10;;;;;;;7.30;68.32;100819.27;130373;1268;108610;-77
2022/09/04 04:17:00;;;;;;;10.60;7.40;;;;;;;7.25;68.09;100817.09;130403;1267;108720;-76
2022/09/04 04:20:23;;;;;;;9.70;7.00;;;;;;;7.22;68.33;100821.64;130344;1268;108993;-76
2022/09/04 04:24:01;;;;;;;11.00;6.50;;;;;;;7.25;68.28;100822.80;130408;1268;108688;-76
2022/09/04 04:27:24;;;;;;;8.80;6.30;;;;;;;7.33;68.29;100827.66;130489;1267;108712;-77
2022/09/04 04:30:39;;;;;;;9.40;6.20;;;;;;;7.47;68.23;100825.02;130466;1267;108798;-76
2022/09/04 04:33:57;;;;;;;9.60;6.60;;;;;;;7.59;68.57;100822.48;130456;1268;108562;-77
2022/09/04 04:37:12;;;;;;;10.20;7.20;;;;;;;7.74;68.40;100826.09;130392;1268;108928;-76
2022/09/04 04:40:27;;;;;;;8.40;6.40;;;;;;;7.91;68.51;100830.60;130471;1268;108884;-76
2022/09/04 04:43:46;;;;;;;9.40;6.60;;;;;;;8.09;68.40;100831.48;130382;1268;108714;-77
2022/09/04 04:47:06;;;;;;;10.50;6.90;;;;;;;8.27;68.33;100832.33;130260;1268;108746;-75
2022/09/04 04:50:20;;;;;;;9.60;6.30;;;;;;;8.47;68.46;100834.50;130286;1268;108846;-76
2022/09/04 04:53:37;;;;;;;10.60;6.90;;;;;;;8.64;68.38;100831.17;130335;1268;108687;-77
2022/09/04 04:56:50;;;;;;;11.20;7.20;;;;;;;8.79;68.47;100834.83;130399;1268;107895;-76
2022/09/04 05:00:09;;;;;;;8.10;6.60;;;;;;;8.95;68.53;100837.79;130352;1268;108647;-76
2022/09/04 05:03:24;;;;;;;10.70;6.90;;;;;;;9.15;68.48;100842.52;130395;1268;108614;-78
2022/09/04 05:06:36;;;;;;;8.90;6.50;;;;;;;9.30;68.49;100847.81;130387;1268;107461;-76
2022/09/04 05:13:27;;;;;;;9.50;6.70;;;;;;;9.71;68.81;100849.11;130376;1267;108839;-76
2022/09/04 05:16:46;;;;;;;9.40;6.70;;;;;;;9.94;68.79;100857.97;130488;1268;108834;-73
2022/09/04 05:19:59;;;;;;;9.70;6.70;;;;;;;10.19;68.80;100856.96;130393;1267;108954;-75
2022/09/04 05:23:16;;;;;;;10.20;7.60;;;;;;;10.41;68.94;100861.17;130383;1268;108797;-78
2022/09/04 05:26:34;;;;;;;10.70;7.40;;;;;;;10.54;68.81;100856.60;130429;1268;108827;-77
2022/09/04 05:29:50;;;;;;;12.50;9.00;;;;;;;10.63;69.31;100856.33;130483;1268;110151;-77
2022/09/04 05:33:02;;;;;;;18.60;10.80;;;;;;;10.72;69.69;100855.88;130503;1268;108706;-78
2022/09/04 05:36:14;;;;;;;20.80;13.40;;;;;;;10.79;69.74;100861.08;130520;1268;108484;-76
2022/09/04 05:39:28;;;;;;;23.40;15.20;;;;;;;10.85;69.87;100862.20;130394;1268;108933;-78
2022/09/04 05:43:07;;;;;;;22.90;14.30;;;;;;;10.90;70.16;100858.80;130475;1268;108811;-77
2022/09/04 05:46:24;;;;;;;19.30;10.70;;;;;;;10.99;70.25;100860.52;130346;1268;108636;-76
2022/09/04 05:49:42;;;;;;;19.20;11.50;;;;;;;11.10;70.87;100866.68;130379;1268;108849;-77
2022/09/04 05:53:07;;;;;;;18.40;11.80;;;;;;;11.27;71.38;100864.91;130430;1267;109087;-77
2022/09/04 05:56:34;;;;;;;17.50;10.30;;;;;;;11.49;71.68;100865.36;130367;1268;108749;-78
2022/09/04 06:00:05;;;;;;;12.20;8.00;;;;;;;11.70;71.85;100867.10;130517;1268;108795;-75
2022/09/04 06:03:35;;;;;;;11.20;7.70;;;;;;;11.89;72.16;100875.67;130262;1268;108792;-77
2022/09/04 06:06:52;;;;;;;10.60;7.30;;;;;;;12.04;72.19;100875.86;130235;1270;108996;-77
2022/09/04 06:10:05;;;;;;;9.00;6.50;;;;;;;12.16;72.56;100878.45;130197;1270;108755;-76
2022/09/04 06:13:40;;;;;;;9.80;6.40;;;;;;;12.28;72.65;100883.19;130318;1268;108767;-76
2022/09/04 06:17:07;;;;;;;11.10;7.00;;;;;;;12.45;72.51;100884.25;130353;1267;108685;-77
2022/09/04 06:20:37;;;;;;;8.60;6.50;;;;;;;12.60;72.92;100882.88;130308;1267;108793;-77
2022/09/04 06:24:20;;;;;;;9.80;7.00;;;;;;;12.80;73.04;100886.96;130344;1268;108816;-74
2022/09/04 06:27:57;;;;;;;10.20;7.70;;;;;;;12.96;72.85;100884.88;131198;1272;108739;-79
2022/09/04 06:31:12;;;;;;;11.20;6.90;;;;;;;13.07;72.90;100887.89;131693;1268;109087;-81
2022/09/04 06:34:29;;;;;;;7.50;5.80;;;;;;;13.18;73.16;100896.08;130488;1268;109827;-79
2022/09/04 06:37:46;;;;;;;9.20;6.60;;;;;;;13.31;73.26;100901.79;130419;1268;107663;-78
2022/09/04 06:41:07;;;;;;;8.80;6.50;;;;;;;13.45;73.52;100904.82;130372;1268;109003;-78
2022/09/04 06:44:24;;;;;;;7.80;5.90;;;;;;;13.61;73.49;100907.11;130498;1268;109111;-79
2022/09/04 06:47:38;;;;;;;6.20;5.00;;;;;;;13.77;73.41;100906.21;130386;1267;108741;-77
2022/09/04 06:50:55;;;;;;;6.40;5.20;;;;;;;13.91;73.50;100905.35;130373;1268;108920;-77
2022/09/04 06:54:15;;;;;;;8.00;5.40;;;;;;;14.05;73.43;100895.86;130393;1267;108636;-78
2022/09/04 06:57:46;;;;;;;6.30;4.60;;;;;;;14.16;73.63;100894.82;130432;1268;108954;-76
2022/09/04 07:00:57;;;;;;;6.00;4.00;;;;;;;14.27;73.50;100895.98;130615;1268;108660;-79
2022/09/04 07:04:17;;;;;;;5.40;4.10;;;;;;;14.40;73.58;100891.95;130572;1268;108644;-80
2022/09/04 07:07:30;;;;;;;6.40;3.70;;;;;;;14.58;73.88;100891.16;130410;1268;107386;-81
2022/09/04 07:10:40;;;;;;;6.90;4.10;;;;;;;14.75;73.83;100893.86;130503;1268;107391;-78
2022/09/04 07:14:15;;;;;;;6.30;4.00;;;;;;;14.89;73.45;100898.77;130349;1268;108683;-79
2022/09/04 07:17:31;;;;;;;4.60;3.70;;;;;;;15.03;73.42;100903.61;130289;1268;108568;-79
2022/09/04 07:20:43;;;;;;;6.40;4.50;;;;;;;15.13;73.48;100905.92;130321;1271;109055;-79
2022/09/04 07:23:53;;;;;;;5.40;3.80;;;;;;;15.19;73.21;100907.52;130329;1268;108640;-80
2022/09/04 07:27:09;;;;;;;5.00;3.70;;;;;;;15.23;73.50;100910.30;130334;1268;108647;-81
2022/09/04 07:30:18;;;;;;;5.90;3.50;;;;;;;15.35;73.57;100912.45;130463;1268;108400;-79
2022/09/04 07:33:32;;;;;;;3.90;3.50;;;;;;;15.48;73.44;100909.71;130533;1268;108793;-78
2022/09/04 07:36:42;;;;;;;3.70;3.00;;;;;;;15.56;73.08;100910.62;130588;1268;106842;-78
2022/09/04 07:39:55;;;;;;;4.40;3.20;;;;;;;15.62;73.04;100916.49;130254;1268;108660;-79
2022/09/04 07:43:11;;;;;;;3.50;3.20;;;;;;;15.72;73.04;100920.98;130454;1268;109089;-80
2022/09/04 07:46:25;;;;;;;4.30;3.20;;;;;;;15.84;73.24;100923.00;130522;1268;109567;-79
2022/09/04 07:49:36;;;;;;;4.60;3.60;;;;;;;15.91;72.96;100925.65;130571;1268;108899;-81
2022/09/04 07:53:01;;;;;;;3.80;2.80;;;;;;;15.97;72.98;100928.43;130537;1268;108774;-79
2022/09/04 07:56:18;;;;;;;5.80;3.00;;;;;;;16.06;73.00;100922.33;130470;1268;108880;-80
2022/09/04 07:59:40;;;;;;;3.40;2.90;;;;;;;16.13;72.75;100921.23;130531;1268;108594;-80
2022/09/04 08:03:16;;;;;;;3.60;2.90;;;;;;;16.25;72.88;100921.66;130392;1268;107586;-79
2022/09/04 08:06:30;;;;;;;4.70;3.50;;;;;;;16.42;72.88;100924.80;130339;1269;107125;-78
2022/09/04 08:09:55;;;;;;;5.00;3.10;;;;;;;16.54;72.58;100920.86;130365;1268;108812;-78
2022/09/04 08:13:26;;;;;;;3.80;3.10;;;;;;;16.71;72.31;100921.11;130627;1268;108896;-79
2022/09/04 08:16:43;;;;;;;3.60;2.90;;;;;;;16.82;71.69;100926.05;130608;1267;108643;-80
2022/09/04 08:20:01;;;;;;;3.80;3.10;;;;;;;16.88;71.45;100925.13;130448;1267;108773;-80
2022/09/04 08:23:29;;;;;;;3.70;3.20;;;;;;;16.96;71.19;100926.77;130566;1267;108690;-80
2022/09/04 08:26:47;;;;;;;5.00;3.30;;;;;;;17.02;70.90;100927.76;130508;1267;108848;-80
2022/09/04 08:30:05;;;;;;;4.10;3.20;;;;;;;17.07;70.64;100926.44;130375;1267;108906;-79
2022/09/04 08:33:36;;;;;;;4.20;3.40;;;;;;;17.14;70.57;100927.27;130470;1268;108587;-77
2022/09/04 08:36:51;;;;;;;4.30;3.30;;;;;;;17.20;70.27;100930.70;130362;1267;108907;-78
2022/09/04 08:40:19;;;;;;;4.80;3.80;;;;;;;17.26;69.95;100934.51;130308;1268;108712;-81
2022/09/04 08:43:39;;;;;;;4.20;2.90;;;;;;;17.33;70.18;100940.24;130272;1271;108795;-82
2022/09/04 08:47:11;;;;;;;3.70;2.80;;;;;;;17.39;69.84;100940.61;130342;1270;108670;-82
2022/09/04 08:50:34;;;;;;;3.10;2.80;;;;;;;17.44;69.76;100938.25;130547;1268;108718;-79
2022/09/04 08:54:19;;;;;;;4.80;3.10;;;;;;;17.51;69.12;100940.23;130558;1267;107860;-79
2022/09/04 08:57:54;;;;;;;3.50;2.90;;;;;;;17.53;68.69;100934.88;130603;1267;108769;-80
2022/09/04 09:01:29;;;;;;;4.40;3.10;;;;;;;17.60;68.50;100937.32;130438;1268;108659;-80
2022/09/04 09:05:10;;;;;;;4.20;2.70;;;;;;;17.60;67.67;100935.16;130486;1268;108806;-78
2022/09/04 09:08:50;;;;;;;4.00;2.60;;;;;;;17.60;67.74;100932.25;130338;1268;106899;-80
2022/09/04 09:12:20;;;;;;;4.30;2.60;;;;;;;17.67;67.85;100938.84;130047;1268;108147;-78
2022/09/04 09:15:45;;;;;;;4.30;2.70;;;;;;;17.70;67.65;100937.98;130515;1268;109077;-76
2022/09/04 09:19:11;;;;;;;3.60;2.80;;;;;;;17.76;67.60;100934.74;130379;1267;108901;-80
2022/09/04 09:22:36;;;;;;;4.00;2.50;;;;;;;17.82;67.38;100932.39;130360;1268;108628;-76
2022/09/04 09:25:51;;;;;;;2.90;2.60;;;;;;;17.87;67.17;100932.71;130516;1268;108952;-77
2022/09/04 09:29:27;;;;;;;3.00;2.50;;;;;;;17.93;66.86;100937.07;130664;1268;108725;-81
2022/09/04 09:33:12;;;;;;;3.30;2.20;;;;;;;18.02;66.77;100935.21;130521;1268;108744;-79
2022/09/04 09:37:05;;;;;;;3.70;2.40;;;;;;;18.15;66.70;100935.98;130524;1267;107640;-84
2022/09/04 09:40:55;;;;;;;5.80;2.90;;;;;;;18.26;66.22;100937.34;130094;1273;108664;-77
2022/09/04 09:44:27;;;;;;;3.10;2.40;;;;;;;18.37;65.75;100939.48;129917;1271;109056;-76
2022/09/04 09:47:59;;;;;;;2.70;2.10;;;;;;;18.44;65.46;100940.37;130546;1268;108691;-78
2022/09/04 09:51:33;;;;;;;2.70;2.20;;;;;;;18.54;65.31;100940.15;130428;1268;105858;-78
2022/09/04 09:55:24;;;;;;;2.80;2.20;;;;;;;18.58;64.81;100939.17;130429;1268;108989;-78
2022/09/04 09:58:50;;;;;;;3.00;2.50;;;;;;;18.64;64.52;100935.63;130484;1268;109738;-80
2022/09/04 10:02:28;;;;;;;2.90;2.30;;;;;;;18.74;63.81;100931.70;130587;1267;107577;-79
2022/09/04 10:06:12;;;;;;;3.70;2.50;;;;;;;18.84;64.00;100932.23;130113;1268;109174;-80
2022/09/04 10:09:43;;;;;;;2.80;2.40;;;;;;;18.98;63.69;100935.25;130300;1268;108691;-81
2022/09/04 10:13:15;;;;;;;3.20;2.30;;;;;;;19.09;63.67;100936.36;130385;1268;108867;-80
2022/09/04 10:17:00;;;;;;;2.60;2.10;;;;;;;19.16;63.52;100938.40;130358;1268;108595;-81
2022/09/04 10:20:35;;;;;;;3.50;2.70;;;;;;;19.20;62.67;100938.02;130447;1268;108623;-80
2022/09/04 10:24:04;;;;;;;2.40;2.20;;;;;;;19.26;62.55;100935.36;130627;1268;108493;-79
2022/09/04 10:27:51;;;;;;;4.90;2.30;;;;;;;19.32;62.30;100931.51;130569;1268;107655;-78
2022/09/04 10:31:26;;;;;;;2.90;2.20;;;;;;;19.42;62.17;100927.17;130335;1268;108881;-78
2022/09/04 10:34:58;;;;;;;2.80;2.40;;;;;;;19.49;61.95;100926.12;130223;1268;108624;-78
2022/09/04 10:38:19;;;;;;;2.90;2.30;;;;;;;19.56;61.86;100925.26;130333;1267;107612;-81
2022/09/04 10:41:46;;;;;;;3.40;2.40;;;;;;;19.63;61.79;100927.07;130471;1268;108637;-74
2022/09/04 10:45:14;;;;;;;2.80;2.30;;;;;;;19.70;61.23;100931.08;130380;1268;108738;-77
2022/09/04 10:48:44;;;;;;;3.10;2.50;;;;;;;19.81;61.42;100928.77;130349;1268;108871;-78
2022/09/04 10:52:35;;;;;;;5.60;2.70;;;;;;;20.02;61.57;100926.44;130375;1268;107659;-78
2022/09/04 10:55:58;;;;;;;3.20;2.60;;;;;;;20.17;60.71;100932.76;130066;1271;108851;-78
2022/09/04 10:59:20;;;;;;;2.60;2.30;;;;;;;20.26;60.53;100930.75;130362;1268;107246;-77
2022/09/04 11:02:46;;;;;;;2.70;2.40;;;;;;;20.40;60.40;100928.45;130333;1268;108909;-78
2022/09/04 11:06:27;;;;;;;2.50;2.20;;;;;;;20.58;59.77;100921.86;130400;1268;108750;-77
2022/09/04 11:09:57;;;;;;;3.10;2.60;;;;;;;20.77;59.59;100921.11;130415;1268;108887;-77
2022/09/04 11:13:27;;;;;;;3.80;2.30;;;;;;;20.97;59.34;100922.70;130329;1268;108916;-77
2022/09/04 11:16:52;;;;;;;3.60;2.40;;;;;;;21.03;58.90;100922.61;130335;1268;107531;-77
2022/09/04 11:20:43;;;;;;;4.60;2.80;;;;;;;21.00;58.32;100922.67;130341;1268;108674;-77
2022/09/04 11:24:16;;;;;;;3.50;2.20;;;;;;;20.77;58.08;100927.45;130415;1268;107219;-77
2022/09/04 11:27:54;;;;;;;2.60;2.40;;;;;;;20.61;58.16;100928.67;130382;1268;108742;-75
2022/09/04 11:31:19;;;;;;;2.70;2.40;;;;;;;20.55;58.09;100926.34;130352;1268;108569;-78
2022/09/04 11:35:12;;;;;;;3.10;2.60;;;;;;;20.48;57.57;100927.28;130373;1268;108502;-77
2022/09/04 11:38:42;;;;;;;2.90;2.60;;;;;;;20.34;56.95;100928.02;130320;1268;109684;-79
2022/09/04 11:42:08;;;;;;;4.10;2.90;;;;;;;20.30;56.43;100930.19;130326;1268;107289;-76
2022/09/04 11:45:47;;;;;;;3.60;2.90;;;;;;;20.26;56.12;100926.96;130317;1268;108734;-77
2022/09/04 11:49:12;;;;;;;2.80;2.50;;;;;;;20.29;56.50;100927.05;130331;1268;108829;-75
2022/09/04 11:52:35;;;;;;;3.10;2.70;;;;;;;20.26;56.30;100930.21;130333;1268;108581;-78
2022/09/04 11:55:58;;;;;;;4.60;3.00;;;;;;;20.17;56.53;100930.98;130384;1268;109164;-78
2022/09/04 11:59:29;;;;;;;4.70;3.20;;;;;;;20.10;56.48;100928.79;130328;1268;108720;-77
2022/09/04 12:03:09;;;;;;;6.20;3.20;;;;;;;20.06;56.44;100929.48;130359;1268;108798;-78
2022/09/04 12:06:33;;;;;;;3.70;3.00;;;;;;;20.00;56.20;100925.73;130358;1268;108727;-79
2022/09/04 12:10:09;;;;;;;3.70;3.10;;;;;;;19.94;56.15;100926.40;130388;1268;108799;-78
2022/09/04 12:13:36;;;;;;;3.80;2.80;;;;;;;19.85;56.11;100926.01;130316;1268;109509;-79
2022/09/04 12:17:17;;;;;;;3.20;2.70;;;;;;;19.76;56.00;100920.66;130262;1268;108936;-79
2022/09/04 12:20:57;;;;;;;3.00;2.70;;;;;;;19.68;55.66;100916.31;129247;1268;1480522;-78
2022/09/04 12:24:21;;;;;;;3.90;3.20;;;;;;;19.66;55.91;100917.34;130433;1268;106639;-79
2022/09/04 12:28:08;;;;;;;3.60;3.10;;;;;;;19.65;55.70;100917.04;130340;1267;107726;-80
2022/09/04 12:31:34;;;;;;;3.60;3.10;;;;;;;19.67;55.94;100919.02;130189;1268;108776;-80
2022/09/04 12:34:54;;;;;;;3.30;3.00;;;;;;;19.68;55.66;100915.77;130446;1268;107310;-80
2022/09/04 12:38:31;;;;;;;3.30;3.00;;;;;;;19.68;55.48;100913.55;130408;1268;108685;-78
2022/09/04 12:41:48;;;;;;;3.10;2.80;;;;;;;19.66;55.24;100914.92;130371;1268;108626;-77
2022/09/04 12:45:10;;;;;;;4.00;3.10;;;;;;;19.63;55.36;100915.48;130336;1268;107652;-80
2022/09/04 12:48:26;;;;;;;4.20;3.00;;;;;;;19.61;55.54;100911.92;130355;1268;108677;-78
2022/09/04 12:51:42;;;;;;;3.40;2.80;;;;;;;19.58;55.20;100914.25;130321;1268;108861;-79
2022/09/04 12:55:00;;;;;;;4.00;3.30;;;;;;;19.56;55.05;100911.52;130408;1268;108742;-83
2022/09/04 12:58:16;;;;;;;4.30;2.80;;;;;;;19.54;55.16;100906.87;130340;1267;108831;-77
2022/09/04 13:01:32;;;;;;;4.80;3.10;;;;;;;19.50;55.02;100913.05;130425;1268;108836;-81
2022/09/04 13:04:51;;;;;;;3.50;3.00;;;;;;;19.44;54.99;100912.79;130611;1267;108697;-80
2022/09/04 13:08:04;;;;;;;4.20;3.10;;;;;;;19.40;54.86;100913.17;130342;1268;108559;-78
2022/09/04 13:11:30;;;;;;;3.70;2.80;;;;;;;19.35;54.66;100912.34;130276;1268;107871;-78
2022/09/04 13:15:01;;;;;;;3.00;2.70;;;;;;;19.32;54.70;100916.15;130359;1268;108441;-80
2022/09/04 13:18:23;;;;;;;3.40;2.80;;;;;;;19.31;54.54;100918.34;130396;1268;108885;-80
2022/09/04 13:21:45;;;;;;;2.90;2.60;;;;;;;19.29;54.91;100917.61;130388;1268;107167;-80
2022/09/04 13:25:02;;;;;;;4.00;2.90;;;;;;;19.30;54.74;100918.79;130455;1267;108651;-76
2022/09/04 13:28:19;;;;;;;4.40;3.00;;;;;;;19.38;54.87;100920.27;130361;1268;108485;-76
2022/09/04 13:31:43;;;;;;;3.50;2.70;;;;;;;19.63;54.90;100919.98;130344;1268;110012;-74
2022/09/04 13:35:07;;;;;;;3.70;3.10;;;;;;;19.96;54.68;100922.20;130397;1268;109745;-77
2022/09/04 13:38:37;;;;;;;3.00;2.60;;;;;;;20.22;54.29;100925.31;130386;1268;108728;-76
2022/09/04 13:42:15;;;;;;;3.50;2.70;;;;;;;20.46;54.15;100922.52;130375;1268;108870;-79
2022/09/04 13:45:23;;;;;;;3.30;2.60;;;;;;;20.66;53.85;100919.32;129877;1268;108780;-76
2022/09/04 13:48:41;;;;;;;3.70;2.70;;;;;;;20.77;53.52;100910.43;130368;1268;108912;-80
2022/09/04 13:51:53;;;;;;;3.40;2.90;;;;;;;20.88;53.49;100910.04;130184;1268;108264;-80
2022/09/04 13:55:05;;;;;;;3.20;2.60;;;;;;;21.02;53.54;100911.91;130258;1268;108833;-77
2022/09/04 13:58:18;;;;;;;4.30;3.40;;;;;;;21.08;53.06;100910.45;130344;1268;108710;-79
2022/09/04 14:01:28;;;;;;;3.10;2.70;;;;;;;21.08;52.33;100912.25;130514;1267;109856;-79
2022/09/04 14:04:43;;;;;;;5.80;3.80;;;;;;;21.05;52.24;100913.25;130430;1267;108716;-81
2022/09/04 14:07:58;;;;;;;3.50;2.80;;;;;;;21.06;52.34;100913.55;130457;1268;107216;-80
2022/09/04 14:11:25;;;;;;;3.70;2.90;;;;;;;21.09;52.14;100911.08;130492;1267;109428;-80
2022/09/04 14:14:58;;;;;;;3.50;2.60;;;;;;;21.14;51.82;100910.25;130439;1267;108744;-81
2022/09/04 14:18:22;;;;;;;3.80;2.60;;;;;;;21.21;51.59;100912.52;130411;1267;108728;-80
2022/09/04 14:21:46;;;;;;;5.20;2.80;;;;;;;21.29;51.58;100909.06;130600;1266;108920;-78
2022/09/04 14:24:59;;;;;;;4.40;2.60;;;;;;;21.37;51.21;100906.98;130407;1268;108958;-78
2022/09/04 14:28:16;;;;;;;3.60;2.60;;;;;;;21.46;51.11;100910.06;130575;1266;108552;-79
2022/09/04 14:31:30;;;;;;;3.30;2.80;;;;;;;21.55;51.07;100907.92;130557;1268;108669;-79
2022/09/04 14:34:48;;;;;;;3.70;2.70;;;;;;;21.64;51.17;100907.98;130505;1268;108677;-80
2022/09/04 14:38:12;;;;;;;3.40;2.60;;;;;;;21.71;50.93;100905.36;130559;1268;108663;-80
2022/09/04 14:41:34;;;;;;;3.60;2.50;;;;;;;21.72;50.60;100908.20;130388;1268;108727;-80
2022/09/04 14:44:57;;;;;;;3.10;2.80;;;;;;;21.62;50.36;100909.34;130348;1268;109131;-79
2022/09/04 14:48:06;;;;;;;2.80;2.20;;;;;;;21.48;50.29;100907.46;130219;1268;108864;-80
2022/09/04 14:51:17;;;;;;;4.10;2.60;;;;;;;21.34;50.44;100910.57;130374;1268;108718;-81
2022/09/04 14:54:29;;;;;;;3.40;2.50;;;;;;;21.22;50.42;100911.10;130531;1266;108641;-80
2022/09/04 14:57:37;;;;;;;;;;;;;;;21.05;50.18;100910.70;130434;1268;108734;-78
2022/09/04 15:01:01;;;;;;;3.90;2.70;;;;;;;20.80;50.03;100910.73;130412;1268;108643;-78
2022/09/04 15:04:14;;;;;;;3.80;2.80;;;;;;;20.61;50.11;100915.08;130400;1267;108732;-80
2022/09/04 15:07:29;;;;;;;4.60;2.90;;;;;;;20.50;49.96;100914.44;130477;1267;108696;-79
2022/09/04 15:10:49;;;;;;;4.10;2.70;;;;;;;20.39;49.96;100915.98;130613;1266;108952;-76
2022/09/04 15:13:58;;;;;;;2.90;2.40;;;;;;;20.31;50.05;100918.15;130569;1265;108769;-80
2022/09/04 15:17:11;;;;;;;3.00;2.60;;;;;;;20.24;50.08;100915.45;130583;1267;107698;-80
2022/09/04 15:20:23;;;;;;;3.70;2.60;;;;;;;20.16;49.89;100915.99;130490;1268;108697;-81
2022/09/04 15:23:37;;;;;;;3.50;2.40;;;;;;;20.05;50.04;100919.38;130416;1267;108703;-80